Time;durP1;ratioP1;P1;durP2;ratioP2;P2;SDS_P1;SDS_P2;PMS_P1;PMS_P2;Temp;Humidity;BMP_temperature;BMP_pressure;BME280_temperature;BME280_humidity;BME280_pressure;Samples;Min_cycle;Max_cycle;Signal;HPM_P1;HPM_P2
2021/09/07 00:00:28;;;;;;;16.00;10.08;;;;;;;10.18;54.92;101537.00;1828614;77;21445;-57
2021/09/07 00:02:55;;;;;;;18.42;9.88;;;;;;;10.20;55.03;101537.33;1859714;77;21010;-56
2021/09/07 00:05:23;;;;;;;20.95;10.68;;;;;;;10.20;55.08;101548.05;1828942;77;21173;-56
2021/09/07 00:07:50;;;;;;;22.52;11.90;;;;;;;10.19;55.07;101543.21;1775696;77;20974;-56
2021/09/07 00:10:17;;;;;;;30.55;11.88;;;;;;;10.18;55.12;101543.70;1857680;76;20921;-56
2021/09/07 00:12:46;;;;;;;28.10;12.53;;;;;;;10.18;55.21;101546.38;1857336;77;20920;-54
2021/09/07 00:15:14;;;;;;;27.67;12.82;;;;;;;10.18;55.26;101543.70;1857724;77;20865;-55
2021/09/07 00:17:43;;;;;;;25.35;13.22;;;;;;;10.16;55.07;101544.93;1858083;77;21137;-55
2021/09/07 00:20:14;;;;;;;27.77;13.18;;;;;;;10.12;54.93;101549.81;1857672;77;21415;-56
2021/09/07 00:22:42;;;;;;;25.57;13.18;;;;;;;10.08;55.04;101552.53;1853884;77;20908;-57
2021/09/07 00:25:11;;;;;;;26.95;12.98;;;;;;;10.03;55.19;101552.27;1856092;77;21035;-56
2021/09/07 00:27:38;;;;;;;;;;;;;;;10.00;55.33;101556.15;1860008;77;21078;-56
2021/09/07 00:30:07;;;;;;;28.55;13.08;;;;;;;9.98;55.38;101548.81;1853080;77;21776;-55
2021/09/07 00:32:34;;;;;;;28.55;13.43;;;;;;;9.97;55.40;101553.84;1857519;77;20865;-55
2021/09/07 00:35:02;;;;;;;29.23;13.93;;;;;;;9.96;55.30;101555.37;1826409;77;20991;-55
2021/09/07 00:37:29;;;;;;;28.38;14.18;;;;;;;9.91;55.36;101557.27;1857077;77;21020;-54
2021/09/07 00:39:57;;;;;;;29.98;14.13;;;;;;;9.88;55.42;101556.30;1852305;77;21486;-55
2021/09/07 00:42:25;;;;;;;26.55;15.03;;;;;;;9.84;55.48;101556.34;1857243;77;21046;-56
2021/09/07 00:44:52;;;;;;;34.48;15.63;;;;;;;9.79;55.58;101554.70;1853531;77;20861;-56
2021/09/07 00:47:19;;;;;;;33.00;16.40;;;;;;;9.69;55.66;101556.33;1857464;77;20917;-55
2021/09/07 00:49:46;;;;;;;33.38;15.15;;;;;;;9.59;55.88;101553.09;1857027;77;21024;-56
2021/09/07 00:52:14;;;;;;;31.75;15.50;;;;;;;9.49;56.16;101552.52;1822999;77;20889;-56
2021/09/07 00:54:42;;;;;;;36.10;16.25;;;;;;;9.43;56.42;101554.08;1857121;77;21951;-56
2021/09/07 00:57:09;;;;;;;33.55;17.10;;;;;;;9.40;56.65;101553.92;1857530;77;20944;-56
2021/09/07 00:59:36;;;;;;;32.40;16.02;;;;;;;9.38;56.75;101551.95;1826349;77;20989;-56
2021/09/07 01:02:05;;;;;;;36.73;17.12;;;;;;;9.38;56.83;101553.28;1855591;77;21425;-55
2021/09/07 01:04:33;;;;;;;36.60;17.07;;;;;;;9.39;56.89;101554.95;1853668;77;20917;-56
2021/09/07 01:07:02;;;;;;;33.83;16.60;;;;;;;9.39;56.91;101553.62;1857349;76;21150;-57
2021/09/07 01:09:31;;;;;;;33.28;17.35;;;;;;;9.36;56.90;101547.78;1855198;77;20873;-55
2021/09/07 01:11:58;;;;;;;32.38;15.40;;;;;;;9.36;56.98;101556.63;1814047;77;21062;-55
2021/09/07 01:14:37;;;;;;;31.45;15.13;;;;;;;9.35;57.02;101553.64;1842105;77;20981;-54
2021/09/07 01:17:18;;;;;;;34.80;15.88;;;;;;;9.32;57.15;101555.84;1842021;77;20987;-54
2021/09/07 01:19:47;;;;;;;31.82;15.88;;;;;;;9.29;57.32;101557.05;1842106;77;21130;-55
2021/09/07 01:22:16;;;;;;;39.45;18.25;;;;;;;9.27;57.25;101549.17;1838067;77;21502;-55
2021/09/07 01:24:43;;;;;;;34.33;15.60;;;;;;;9.26;57.28;101552.88;1836566;77;20981;-55
2021/09/07 01:27:12;;;;;;;33.67;16.48;;;;;;;9.24;57.38;101551.39;1844889;77;21075;-56
2021/09/07 01:29:41;;;;;;;34.58;15.98;;;;;;;9.22;57.46;101548.08;1839038;77;21784;-56
2021/09/07 01:32:10;;;;;;;33.20;15.20;;;;;;;9.22;57.57;101549.42;1839402;77;21821;-56
2021/09/07 01:34:38;;;;;;;36.53;15.88;;;;;;;9.22;57.62;101548.08;1838779;77;20920;-56
2021/09/07 01:37:07;;;;;;;32.53;15.50;;;;;;;9.24;57.52;101550.05;1839684;77;20936;-55
2021/09/07 01:39:36;;;;;;;32.73;15.28;;;;;;;9.26;57.48;101554.22;1842857;77;21036;-55
2021/09/07 01:42:05;;;;;;;;;;;;;;;9.27;57.51;101553.70;1811404;76;20980;-54
2021/09/07 01:44:33;;;;;;;29.27;13.58;;;;;;;9.28;57.47;101546.83;1840511;77;21128;-59
2021/09/07 01:47:00;;;;;;;28.23;14.10;;;;;;;9.30;57.45;101549.33;1841947;77;20854;-56
2021/09/07 01:49:28;;;;;;;27.55;13.48;;;;;;;9.33;57.42;101552.98;1841389;77;21541;-56
2021/09/07 01:51:56;;;;;;;36.08;13.70;;;;;;;9.36;57.30;101557.97;1839745;77;21569;-57
2021/09/07 01:54:23;;;;;;;33.80;14.80;;;;;;;9.40;57.24;101561.12;1843462;77;20932;-57
2021/09/07 01:56:50;;;;;;;37.00;13.88;;;;;;;9.42;57.26;101560.42;1841825;77;21147;-56
2021/09/07 01:59:19;;;;;;;38.88;15.45;;;;;;;9.43;57.31;101556.23;1826348;77;21588;-56
2021/09/07 02:01:47;;;;;;;30.72;15.10;;;;;;;9.45;57.25;101559.58;1825596;77;21067;-56
2021/09/07 02:04:15;;;;;;;31.85;15.35;;;;;;;9.46;57.33;101557.72;1823006;77;21699;-55
2021/09/07 02:06:42;;;;;;;28.90;13.75;;;;;;;9.49;57.41;101565.91;1834610;77;20972;-56
2021/09/07 02:09:09;;;;;;;31.52;15.48;;;;;;;9.50;57.34;101565.72;1820634;77;21151;-57
2021/09/07 02:11:38;;;;;;;30.17;14.65;;;;;;;9.51;57.23;101567.88;1850293;77;20947;-55
2021/09/07 02:14:06;;;;;;;28.98;14.43;;;;;;;9.53;57.28;101566.69;1860387;77;21011;-56
2021/09/07 02:16:34;;;;;;;32.93;14.87;;;;;;;9.55;57.21;101559.81;1859430;77;21367;-58
2021/09/07 02:19:01;;;;;;;29.10;15.35;;;;;;;9.55;57.06;101560.64;1832284;77;20987;-56
2021/09/07 02:21:30;;;;;;;29.23;14.03;;;;;;;9.58;56.98;101563.46;1860544;77;21117;-57
2021/09/07 02:23:58;;;;;;;29.90;14.93;;;;;;;9.59;56.82;101565.95;1857209;77;20944;-56
2021/09/07 02:26:25;;;;;;;33.05;14.55;;;;;;;9.60;56.73;101564.95;1860001;77;20928;-56
2021/09/07 02:28:53;;;;;;;34.40;15.75;;;;;;;9.61;56.59;101561.76;1860319;77;20900;-56
2021/09/07 02:31:22;;;;;;;30.43;13.60;;;;;;;9.61;56.65;101561.76;1860359;77;20889;-56
2021/09/07 02:33:51;;;;;;;29.20;13.98;;;;;;;9.62;56.53;101562.09;1860630;77;21383;-57
2021/09/07 02:36:23;;;;;;;29.98;14.28;;;;;;;9.63;56.25;101561.09;1860112;77;20964;-55
2021/09/07 02:38:50;;;;;;;;;;;;;;;9.63;56.20;101564.58;1858920;77;22048;-58
2021/09/07 02:41:17;;;;;;;29.23;13.70;;;;;;;9.61;56.02;101560.42;1860690;77;20087;-54
2021/09/07 02:43:44;;;;;;;29.37;13.48;;;;;;;9.58;56.11;101564.80;1855793;77;20905;-55
2021/09/07 02:46:11;;;;;;;30.30;14.47;;;;;;;9.57;56.23;101566.66;1860342;77;21138;-56
2021/09/07 02:48:40;;;;;;;31.48;13.62;;;;;;;9.56;56.18;101567.66;1860292;77;24774;-56
2021/09/07 02:51:07;;;;;;;37.93;14.47;;;;;;;9.54;56.32;101568.36;1860357;77;20975;-56
2021/09/07 02:53:34;;;;;;;30.25;14.28;;;;;;;9.53;56.26;101575.23;1860289;77;20865;-56
2021/09/07 02:56:02;;;;;;;29.10;13.93;;;;;;;9.51;56.20;101575.91;1860461;77;20987;-56
2021/09/07 02:58:28;;;;;;;34.63;15.98;;;;;;;9.49;56.29;101580.62;1858525;77;21036;-56
2021/09/07 03:00:56;;;;;;;30.95;15.18;;;;;;;9.45;56.29;101578.80;1859826;77;20963;-57
2021/09/07 03:03:23;;;;;;;27.62;13.05;;;;;;;9.39;56.26;101576.85;1860225;77;20988;-55
2021/09/07 03:05:52;;;;;;;31.35;13.65;;;;;;;9.34;56.38;101589.95;1860665;77;20960;-56
2021/09/07 03:08:21;;;;;;;26.90;14.00;;;;;;;9.28;56.52;101584.81;1860575;77;20916;-56
2021/09/07 03:10:48;;;;;;;29.40;13.60;;;;;;;9.24;56.62;101586.18;1846004;77;21743;-55
2021/09/07 03:13:17;;;;;;;26.30;13.87;;;;;;;9.20;56.82;101584.87;1790267;79;20919;-57
2021/09/07 03:15:46;;;;;;;29.65;13.30;;;;;;;9.17;56.88;101582.55;1817093;77;20982;-55
2021/09/07 03:18:13;;;;;;;27.27;13.62;;;;;;;9.15;56.89;101584.59;1790186;79;21038;-55
2021/09/07 03:20:42;;;;;;;30.77;13.70;;;;;;;9.11;56.93;101586.77;1817412;77;20894;-54
2021/09/07 03:23:11;;;;;;;30.95;14.07;;;;;;;9.09;57.05;101598.16;1817655;79;20922;-55
2021/09/07 03:25:38;;;;;;;28.65;14.07;;;;;;;9.08;57.04;101585.80;1817451;79;20942;-55
2021/09/07 03:28:05;;;;;;;25.48;12.05;;;;;;;9.06;57.06;101589.98;1817574;79;20965;-56
2021/09/07 03:30:32;;;;;;;28.67;14.15;;;;;;;9.04;57.06;101586.67;1789005;77;21077;-55
2021/09/07 03:33:00;;;;;;;24.77;13.18;;;;;;;9.04;57.22;101588.00;1817574;79;21429;-56
2021/09/07 03:35:29;;;;;;;27.82;13.78;;;;;;;9.03;57.29;101586.33;1813517;77;21178;-57
2021/09/07 03:37:56;;;;;;;26.97;14.60;;;;;;;9.03;57.30;101587.67;1817832;77;20922;-56
2021/09/07 03:40:24;;;;;;;30.70;13.22;;;;;;;9.03;57.24;101592.20;1817946;79;21405;-55
2021/09/07 03:42:52;;;;;;;;;;;;;;;9.01;57.30;101590.19;1820518;79;20981;-56
2021/09/07 03:45:21;;;;;;;24.92;13.13;;;;;;;9.00;57.27;101592.56;1817834;78;20439;-57
2021/09/07 03:47:50;;;;;;;25.80;12.93;;;;;;;8.98;57.30;101591.39;1817761;77;21137;-56
2021/09/07 03:50:18;;;;;;;26.70;12.28;;;;;;;8.97;57.19;101596.41;1817690;77;20949;-56
2021/09/07 03:52:46;;;;;;;26.70;12.18;;;;;;;8.97;57.06;101596.92;1817763;77;21540;-57
2021/09/07 03:55:14;;;;;;;27.70;11.12;;;;;;;8.93;57.00;101597.25;1789866;79;20945;-57
2021/09/07 03:57:42;;;;;;;26.07;12.03;;;;;;;8.89;57.05;101597.78;1818175;77;21081;-56
2021/09/07 04:00:10;;;;;;;20.60;11.28;;;;;;;8.87;57.08;101596.63;1790449;79;21795;-57
2021/09/07 04:02:40;;;;;;;23.15;10.82;;;;;;;8.87;57.08;101592.62;1817579;77;21001;-56
2021/09/07 04:05:08;;;;;;;28.92;11.45;;;;;;;8.86;57.01;101600.34;1818039;79;20914;-57
2021/09/07 04:07:35;;;;;;;20.85;10.80;;;;;;;8.87;57.05;101602.49;1790842;79;21140;-54
2021/09/07 04:10:03;;;;;;;23.18;10.72;;;;;;;8.88;57.05;101604.99;1817672;79;21034;-56
2021/09/07 04:12:30;;;;;;;25.08;11.48;;;;;;;8.90;57.13;101606.97;1824150;77;21956;-56
2021/09/07 04:14:59;;;;;;;28.85;11.97;;;;;;;8.95;57.06;101613.13;1854907;76;21467;-55
2021/09/07 04:17:26;;;;;;;20.23;10.25;;;;;;;9.01;57.09;101609.77;1854866;77;20932;-56
2021/09/07 04:19:54;;;;;;;22.05;11.10;;;;;;;9.49;56.69;101610.07;1857117;77;20976;-55
2021/09/07 04:22:23;;;;;;;28.38;10.65;;;;;;;10.69;54.92;101608.59;1857156;77;21469;-56
2021/09/07 04:24:50;;;;;;;20.92;9.80;;;;;;;12.19;51.56;101605.97;1821249;77;21060;-55
2021/09/07 04:27:18;;;;;;;24.45;10.72;;;;;;;13.67;47.79;101606.63;1854411;77;20936;-58
2021/09/07 04:29:45;;;;;;;24.30;11.55;;;;;;;15.11;44.47;101607.60;1857104;77;21002;-57
2021/09/07 04:32:12;;;;;;;25.08;11.25;;;;;;;16.42;41.36;101613.05;1853758;77;20984;-57
2021/09/07 04:34:39;;;;;;;26.75;11.25;;;;;;;17.57;38.58;101616.61;1838525;77;21036;-57
2021/09/07 04:37:08;;;;;;;23.38;11.40;;;;;;;18.53;36.33;101611.39;1826070;77;21147;-56
2021/09/07 04:39:36;;;;;;;31.20;11.43;;;;;;;19.40;34.70;101606.20;1827143;77;21517;-58
2021/09/07 04:42:04;;;;;;;22.67;11.10;;;;;;;20.21;33.28;101611.72;1857350;77;20845;-58
2021/09/07 04:44:31;;;;;;;16.25;10.72;;;;;;;20.94;31.87;101614.22;1857153;77;20924;-59
2021/09/07 04:47:00;;;;;;;21.65;10.75;;;;;;;21.59;30.65;101613.42;1855940;77;20877;-56
2021/09/07 04:49:28;;;;;;;20.77;10.50;;;;;;;22.13;29.61;101615.09;1826582;77;21475;-57
2021/09/07 04:51:56;;;;;;;18.73;9.78;;;;;;;22.45;29.14;101605.41;1825601;77;21570;-56
2021/09/07 04:54:23;;;;;;;21.23;10.05;;;;;;;22.63;28.83;101611.48;1857146;77;20924;-56
2021/09/07 04:56:52;;;;;;;18.27;10.18;;;;;;;22.89;28.31;101609.63;1854329;77;21057;-55
2021/09/07 04:59:20;;;;;;;19.00;9.28;;;;;;;23.20;27.95;101614.62;1826996;77;20980;-56
2021/09/07 05:01:47;;;;;;;20.37;9.75;;;;;;;23.59;27.46;101614.59;1857092;77;21187;-56
2021/09/07 05:04:14;;;;;;;14.98;8.78;;;;;;;24.00;26.79;101606.84;1857005;77;20992;-57
2021/09/07 05:06:41;;;;;;;18.98;9.70;;;;;;;24.35;26.41;101610.02;1855654;77;21496;-55
2021/09/07 05:09:08;;;;;;;16.70;9.65;;;;;;;24.72;26.07;101611.48;1856411;77;20948;-55
2021/09/07 05:11:36;;;;;;;17.50;9.35;;;;;;;25.04;25.72;101610.16;1823309;77;20999;-55
2021/09/07 05:14:07;;;;;;;12.55;8.10;;;;;;;25.18;25.48;101613.88;1820804;77;21031;-55
2021/09/07 05:16:35;;;;;;;16.05;8.38;;;;;;;24.93;25.61;101608.61;1802947;78;20904;-56
2021/09/07 05:19:02;;;;;;;17.75;8.65;;;;;;;24.74;26.14;101616.69;1807867;77;21095;-56
2021/09/07 05:21:31;;;;;;;18.45;9.10;;;;;;;24.98;26.01;101610.77;1840307;77;21469;-64
2021/09/07 05:23:58;;;;;;;19.10;8.65;;;;;;;25.51;25.47;101618.31;1840412;77;20968;-61
2021/09/07 05:26:25;;;;;;;16.62;8.30;;;;;;;26.07;24.79;101613.90;1815005;77;21230;-62
2021/09/07 05:28:52;;;;;;;22.93;8.80;;;;;;;26.62;24.26;101614.82;1820316;77;20905;-60
2021/09/07 05:31:21;;;;;;;15.13;7.85;;;;;;;27.04;23.54;101616.69;1806570;78;20933;-61
2021/09/07 05:33:48;;;;;;;13.10;6.95;;;;;;;27.30;23.03;101618.19;1810585;77;20892;-62
2021/09/07 05:36:17;;;;;;;14.93;7.20;;;;;;;27.49;22.80;101621.75;1806517;78;20929;-62
2021/09/07 05:38:43;;;;;;;12.13;7.37;;;;;;;27.80;22.64;101623.37;1826183;76;21150;-62
2021/09/07 05:41:10;;;;;;;10.40;7.15;;;;;;;28.14;22.37;101627.69;1815203;77;21043;-58
2021/09/07 05:43:39;;;;;;;13.15;7.22;;;;;;;28.53;21.94;101621.34;1835345;77;21002;-58
2021/09/07 05:46:06;;;;;;;9.80;5.70;;;;;;;28.99;21.26;101629.17;1841294;77;21702;-62
2021/09/07 05:48:33;;;;;;;9.95;5.87;;;;;;;29.34;20.74;101628.87;1812769;77;20843;-62
2021/09/07 05:51:00;;;;;;;9.60;6.23;;;;;;;29.67;20.24;101628.55;1808536;78;21105;-62
2021/09/07 05:53:27;;;;;;;9.13;6.17;;;;;;;29.94;20.23;101630.06;1793985;78;20987;-62
2021/09/07 05:55:55;;;;;;;9.20;5.80;;;;;;;30.09;19.89;101633.76;1806506;78;20976;-62
2021/09/07 05:58:22;;;;;;;7.97;5.22;;;;;;;30.37;19.78;101634.34;1807716;77;21576;-62
2021/09/07 06:00:49;;;;;;;13.28;6.03;;;;;;;30.73;19.45;101636.02;1804735;78;20988;-62
2021/09/07 06:03:16;;;;;;;7.35;4.58;;;;;;;31.09;18.90;101634.88;1805103;78;21118;-62
2021/09/07 06:05:44;;;;;;;10.43;4.80;;;;;;;31.39;18.14;101634.16;1808872;78;20940;-63
2021/09/07 06:08:11;;;;;;;10.43;4.50;;;;;;;31.49;17.58;101635.20;1812238;77;20984;-61
2021/09/07 06:10:39;;;;;;;7.15;4.03;;;;;;;31.51;17.47;101634.86;1808810;78;21482;-63
2021/09/07 06:13:06;;;;;;;;;;;;;;;31.68;17.47;101632.65;1827731;77;21314;-61
2021/09/07 06:15:36;;;;;;;6.87;4.25;;;;;;;31.91;17.33;101634.59;1859964;77;20119;-62
2021/09/07 06:18:06;;;;;;;7.62;4.85;;;;;;;32.03;16.94;101640.81;1828542;77;20834;-63
2021/09/07 06:20:35;;;;;;;8.83;5.10;;;;;;;32.28;17.14;101639.06;1859980;77;20955;-62
2021/09/07 06:23:05;;;;;;;7.67;4.45;;;;;;;32.28;17.14;101639.06;1856579;77;20944;-61
2021/09/07 06:25:38;;;;;;;7.22;4.50;;;;;;;32.43;16.58;101638.45;1855493;77;20940;-62
2021/09/07 06:28:09;;;;;;;7.37;4.50;;;;;;;32.66;16.55;101646.47;1831346;77;21161;-62
2021/09/07 06:30:37;;;;;;;8.20;4.67;;;;;;;32.91;16.36;101648.02;1857150;77;21822;-62
2021/09/07 06:33:05;;;;;;;8.95;5.03;;;;;;;33.10;16.17;101642.76;1858938;77;20908;-61
2021/09/07 06:35:32;;;;;;;10.63;5.70;;;;;;;33.25;16.10;101647.47;1832043;77;21118;-62
2021/09/07 06:38:01;;;;;;;11.30;4.95;;;;;;;33.35;16.06;101655.37;1859717;77;20979;-61
2021/09/07 06:40:45;;;;;;;8.93;4.85;;;;;;;33.38;16.24;101649.68;1826377;77;21133;-62
2021/09/07 06:43:19;;;;;;;7.47;4.80;;;;;;;33.38;15.80;101651.07;1855116;77;20971;-63
2021/09/07 06:45:50;;;;;;;14.93;5.50;;;;;;;33.30;15.98;101654.19;1859553;77;21003;-62
2021/09/07 06:48:23;;;;;;;10.88;4.80;;;;;;;33.25;15.93;101656.61;1859629;77;21475;-62
2021/09/07 06:50:58;;;;;;;7.45;4.72;;;;;;;33.14;16.21;101651.20;1858241;77;21020;-62
2021/09/07 06:53:27;;;;;;;9.03;4.97;;;;;;;33.08;16.27;101654.77;1859823;77;21127;-62
2021/09/07 06:55:55;;;;;;;6.97;4.62;;;;;;;33.09;16.37;101658.38;1859751;77;20976;-61
2021/09/07 06:58:35;;;;;;;10.13;4.40;;;;;;;33.04;15.75;101655.23;1860042;77;20906;-62
2021/09/07 07:01:07;;;;;;;6.83;4.35;;;;;;;32.94;15.86;101659.23;1859563;77;20989;-61
2021/09/07 07:03:43;;;;;;;5.47;3.50;;;;;;;32.82;16.03;101661.38;1857585;77;21458;-62
2021/09/07 07:06:11;;;;;;;10.38;3.77;;;;;;;32.64;15.82;101657.08;1859986;77;21052;-62
2021/09/07 07:08:39;;;;;;;7.12;3.77;;;;;;;32.36;15.81;101655.41;1854493;77;20990;-61
2021/09/07 07:11:07;;;;;;;6.45;3.20;;;;;;;32.12;16.45;101666.55;1859879;77;20963;-62
2021/09/07 07:13:35;;;;;;;9.13;3.77;;;;;;;31.97;16.60;101662.36;1856802;77;21015;-61
2021/09/07 07:16:04;;;;;;;4.65;3.50;;;;;;;31.83;16.62;101665.34;1857203;77;20905;-62
2021/09/07 07:18:31;;;;;;;8.73;4.30;;;;;;;31.65;16.73;101665.18;1852413;77;21108;-62
2021/09/07 07:20:58;;;;;;;7.45;3.55;;;;;;;31.34;17.50;101671.16;1852095;77;20980;-62
2021/09/07 07:23:25;;;;;;;9.23;4.00;;;;;;;30.89;17.61;101666.78;1857105;77;20979;-62
2021/09/07 07:25:52;;;;;;;7.62;4.08;;;;;;;30.31;18.16;101673.52;1856891;77;21184;-63
2021/09/07 07:28:20;;;;;;;6.62;3.67;;;;;;;29.56;18.87;101669.19;1856861;77;20960;-62
2021/09/07 07:30:47;;;;;;;3.20;2.60;;;;;;;28.79;19.45;101669.89;1826839;77;21091;-61
2021/09/07 07:33:14;;;;;;;3.50;2.50;;;;;;;28.07;19.95;101673.32;1857199;77;20936;-62
2021/09/07 07:35:42;;;;;;;4.60;2.60;;;;;;;27.31;20.29;101680.38;1857216;77;20972;-61
2021/09/07 07:38:09;;;;;;;5.08;2.25;;;;;;;26.66;20.70;101681.86;1857118;77;20937;-61
2021/09/07 07:40:36;;;;;;;6.17;3.08;;;;;;;26.12;20.76;101677.85;1852742;77;20995;-61
2021/09/07 07:43:03;;;;;;;7.50;3.10;;;;;;;25.67;21.89;101676.61;1852152;77;21951;-63
2021/09/07 07:45:31;;;;;;;4.78;2.30;;;;;;;25.36;22.49;101672.76;1857056;77;20971;-62
2021/09/07 07:47:58;;;;;;;4.65;2.08;;;;;;;25.10;22.52;101677.61;1857429;77;20921;-61
2021/09/07 07:50:25;;;;;;;6.58;2.02;;;;;;;24.88;22.56;101675.28;1854293;77;20929;-60
2021/09/07 07:52:54;;;;;;;3.92;2.10;;;;;;;24.68;21.87;101677.58;1855869;76;20873;-62
2021/09/07 07:55:21;;;;;;;5.17;2.60;;;;;;;24.35;22.08;101677.14;1856755;77;21779;-62
2021/09/07 07:57:51;;;;;;;4.10;2.17;;;;;;;23.99;22.32;101675.86;1856909;77;20964;-60
2021/09/07 08:00:18;;;;;;;3.10;1.90;;;;;;;23.60;22.96;101671.79;1854069;77;20936;-61
2021/09/07 08:02:48;;;;;;;2.25;1.60;;;;;;;23.31;23.30;101676.17;1856902;77;20921;-62
2021/09/07 08:05:31;;;;;;;2.58;1.40;;;;;;;23.14;23.25;101678.59;1854766;77;21027;-61
2021/09/07 08:11:42;;;;;;;5.95;1.40;;;;;;;22.79;23.01;101680.14;1852079;77;21451;-61
2021/09/07 08:17:41;;;;;;;5.03;1.75;;;;;;;22.45;23.14;101678.36;1854491;77;20976;-61
2021/09/07 08:23:39;;;;;;;2.80;1.72;;;;;;;22.31;24.74;101672.55;1852761;77;20964;-61
2021/09/07 08:29:36;;;;;;;4.05;1.32;;;;;;;22.30;24.99;101679.89;1856984;77;21030;-61
2021/09/07 08:35:34;;;;;;;3.80;2.10;;;;;;;22.16;23.33;101681.48;1857112;77;20963;-62
2021/09/07 08:41:31;;;;;;;2.55;1.72;;;;;;;21.74;24.62;101679.56;1847867;77;20956;-62
2021/09/07 08:47:58;;;;;;;2.20;1.35;;;;;;;21.71;24.77;101683.63;1851107;77;20976;-63
2021/09/07 08:54:30;;;;;;;5.08;1.80;;;;;;;21.64;25.00;101670.22;1855848;77;21481;-60
2021/09/07 09:00:51;;;;;;;3.15;1.60;;;;;;;21.53;25.47;101664.39;1855392;77;21015;-62
2021/09/07 09:06:48;;;;;;;3.08;1.80;;;;;;;21.68;25.42;101660.41;1855227;77;20941;-61
2021/09/07 09:09:16;;;;;;;3.10;1.70;;;;;;;21.71;25.17;101669.98;1826825;77;21146;-62
2021/09/07 09:11:56;;;;;;;5.03;1.35;;;;;;;21.69;24.39;101663.42;1856517;77;21007;-61
2021/09/07 09:14:40;;;;;;;2.92;1.47;;;;;;;21.58;24.63;101665.78;1853527;77;20886;-62
2021/09/07 09:17:29;;;;;;;3.35;1.75;;;;;;;21.54;25.37;101664.68;1855840;77;22080;-63
2021/09/07 09:20:13;;;;;;;4.47;1.60;;;;;;;21.55;25.83;101664.13;1852907;75;20909;-60
2021/09/07 09:22:57;;;;;;;2.65;1.67;;;;;;;21.53;26.35;101656.20;1854669;77;21116;-62
2021/09/07 09:25:26;;;;;;;5.50;1.75;;;;;;;21.56;26.33;101663.87;1850794;77;21043;-61
2021/09/07 09:28:01;;;;;;;2.10;1.35;;;;;;;21.58;26.72;101662.24;1850267;77;20963;-62
2021/09/07 09:30:37;;;;;;;2.80;1.30;;;;;;;21.62;26.53;101658.73;1853770;77;21035;-61
2021/09/07 09:33:04;;;;;;;4.25;1.65;;;;;;;21.64;26.74;101657.94;1856887;77;21023;-60
2021/09/07 09:35:33;;;;;;;4.00;1.75;;;;;;;21.62;26.19;101658.73;1856722;77;21139;-61
2021/09/07 09:38:05;;;;;;;7.58;3.35;;;;;;;21.62;25.79;101662.01;1856607;77;21387;-62
2021/09/07 09:40:33;;;;;;;4.55;2.30;;;;;;;21.55;25.16;101662.22;1851339;77;20972;-62
2021/09/07 09:43:27;;;;;;;3.30;2.17;;;;;;;21.45;26.19;101656.13;1857612;77;21486;-61
2021/09/07 09:45:55;;;;;;;3.20;1.32;;;;;;;21.46;25.85;101656.94;1845836;76;20933;-61
2021/09/07 09:48:29;;;;;;;3.50;1.60;;;;;;;21.41;25.63;101650.91;1857355;77;21447;-62
2021/09/07 09:50:58;;;;;;;2.98;1.87;;;;;;;21.35;25.86;101656.84;1856552;77;21011;-62
2021/09/07 09:53:26;;;;;;;4.33;1.67;;;;;;;21.31;25.87;101649.45;1857223;77;21491;-61
2021/09/07 09:55:55;;;;;;;5.70;1.57;;;;;;;21.32;25.82;101649.19;1856146;77;20973;-61
2021/09/07 09:58:22;;;;;;;2.65;1.45;;;;;;;21.31;26.14;101647.53;1855874;75;21024;-61
2021/09/07 10:00:50;;;;;;;4.62;2.00;;;;;;;21.32;26.02;101644.28;1855370;77;21164;-62
2021/09/07 10:03:18;;;;;;;4.90;2.33;;;;;;;21.34;25.84;101649.73;1857438;77;20945;-61
2021/09/07 10:05:45;;;;;;;2.95;1.75;;;;;;;21.40;26.45;101649.25;1857404;77;20985;-61
2021/09/07 10:18:41;;;;;;;1.87;1.32;;;;;;;21.13;26.38;101647.93;1777949;79;20109;-64
2021/09/07 10:24:53;;;;;;;3.85;1.45;;;;;;;20.87;27.52;101641.39;1781561;79;21491;-62
2021/09/07 10:31:00;;;;;;;2.40;1.40;;;;;;;20.88;27.27;101636.23;1781439;79;21456;-62
2021/09/07 10:37:05;;;;;;;3.98;1.60;;;;;;;20.83;27.36;101634.25;1786306;79;20977;-63
2021/09/07 10:43:02;;;;;;;3.83;1.40;;;;;;;20.80;26.94;101632.89;1782162;79;20875;-62
2021/09/07 10:49:26;;;;;;;4.35;1.62;;;;;;;20.56;27.15;101623.31;1781290;79;20926;-63
2021/09/07 10:55:24;;;;;;;3.22;1.60;;;;;;;20.45;27.59;101624.56;1783676;79;20870;-62
2021/09/07 11:01:33;;;;;;;13.13;6.22;;;;;;;20.21;28.29;101622.61;1783113;79;20957;-64
2021/09/07 11:07:40;;;;;;;21.57;6.83;;;;;;;19.95;30.26;101626.36;1786747;78;21020;-66
2021/09/07 11:10:26;;;;;;;15.68;6.60;;;;;;;19.76;31.00;101620.34;1732719;79;21044;-62
2021/09/07 11:13:16;;;;;;;25.77;8.43;;;;;;;19.75;31.40;101622.77;1786198;77;21475;-63
2021/09/07 11:15:52;;;;;;;25.62;7.20;;;;;;;19.81;31.58;101620.98;1785421;80;22240;-63
2021/09/07 11:18:35;;;;;;;23.62;8.05;;;;;;;19.89;31.10;101623.80;1786113;79;21517;-64
2021/09/07 11:21:10;;;;;;;18.17;7.40;;;;;;;19.81;31.30;101617.45;1784142;80;21027;-63
2021/09/07 11:23:46;;;;;;;16.40;7.62;;;;;;;19.63;30.71;101613.89;1782152;80;21022;-64
2021/09/07 11:26:16;;;;;;;16.87;6.87;;;;;;;19.23;30.64;101612.17;1783769;80;21031;-63
2021/09/07 11:28:47;;;;;;;15.43;6.60;;;;;;;18.94;31.26;101608.12;1782221;80;21780;-62
2021/09/07 11:31:14;;;;;;;16.25;6.33;;;;;;;18.81;31.64;101598.34;1780614;79;20983;-64
2021/09/07 11:33:43;;;;;;;16.60;6.50;;;;;;;18.83;32.13;101595.38;1786631;80;21107;-63
2021/09/07 11:36:13;;;;;;;18.43;6.90;;;;;;;18.94;32.04;101598.62;1786856;80;20983;-62
2021/09/07 11:38:49;;;;;;;15.65;6.28;;;;;;;19.02;32.16;101590.59;1786249;80;21006;-63
2021/09/07 11:41:22;;;;;;;15.75;5.25;;;;;;;19.07;32.49;101589.34;1783996;80;21132;-64
2021/09/07 11:43:57;;;;;;;14.83;5.70;;;;;;;19.15;31.01;101598.97;1776548;79;21023;-63
2021/09/07 11:46:32;;;;;;;13.45;4.70;;;;;;;19.11;31.12;101589.14;1783204;79;20909;-63
2021/09/07 11:49:08;;;;;;;8.48;4.30;;;;;;;19.12;31.54;101584.52;1786197;79;20978;-64
2021/09/07 11:51:41;;;;;;;16.20;5.70;;;;;;;19.22;32.24;101592.84;1781016;80;20970;-63
2021/09/07 11:54:09;;;;;;;15.38;5.33;;;;;;;19.33;32.27;101586.52;1782947;79;21136;-63
2021/09/07 11:56:40;;;;;;;18.37;6.92;;;;;;;19.43;32.50;101584.47;1784901;79;21517;-63
2021/09/07 11:59:18;;;;;;;16.48;6.35;;;;;;;19.44;32.50;101590.20;1783490;80;20998;-63
2021/09/07 12:01:50;;;;;;;14.78;6.17;;;;;;;19.35;32.62;101585.72;1786541;79;21769;-63
2021/09/07 12:04:20;;;;;;;12.23;6.03;;;;;;;19.30;32.48;101584.30;1761094;80;21047;-63
2021/09/07 12:06:51;;;;;;;15.90;6.17;;;;;;;19.32;32.53;101579.97;1782170;80;20920;-63
2021/09/07 12:09:28;;;;;;;13.50;5.53;;;;;;;19.36;32.42;101577.02;1785958;80;21007;-63
2021/09/07 12:12:10;;;;;;;;;;;;;;;19.38;32.12;101587.13;1786765;80;20979;-63
2021/09/07 12:14:40;;;;;;;15.98;6.05;;;;;;;19.18;31.63;101569.39;1809810;78;20156;-63
2021/09/07 12:17:15;;;;;;;12.73;5.70;;;;;;;18.99;31.85;101567.98;1833518;78;21075;-65
2021/09/07 12:19:49;;;;;;;11.70;5.12;;;;;;;18.82;32.08;101566.05;1831641;78;21147;-63
2021/09/07 12:22:23;;;;;;;10.23;5.10;;;;;;;18.69;32.99;101567.17;1836519;78;20977;-64
2021/09/07 12:25:15;;;;;;;15.50;5.95;;;;;;;18.69;32.89;101564.45;1828834;78;20993;-66
2021/09/07 12:27:54;;;;;;;14.80;5.62;;;;;;;18.72;32.39;101558.53;1835478;78;20874;-63
2021/09/07 12:30:30;;;;;;;12.53;5.17;;;;;;;18.73;32.84;101560.73;1832935;78;20966;-62
2021/09/07 12:33:21;;;;;;;10.60;5.20;;;;;;;18.76;32.53;101566.19;1833120;78;21192;-65
2021/09/07 12:35:55;;;;;;;11.25;5.45;;;;;;;18.73;32.95;101562.09;1834070;78;21444;-62
2021/09/07 12:38:28;;;;;;;13.10;5.10;;;;;;;18.66;32.79;101561.41;1835452;77;20926;-66
2021/09/07 12:40:59;;;;;;;15.55;5.00;;;;;;;18.54;33.27;101558.20;1810319;78;21039;-63
2021/09/07 12:43:47;;;;;;;10.32;4.47;;;;;;;18.44;33.73;101558.55;1835123;77;21008;-62
2021/09/07 12:46:43;;;;;;;14.15;4.47;;;;;;;18.39;33.68;101552.50;1831638;78;21603;-63
2021/09/07 12:49:25;;;;;;;13.40;3.77;;;;;;;18.36;33.62;101547.55;1825414;78;21484;-63